Gubkin, Russia
Current Conditions -  °F | °C
As of 10:00 PM on Sunday 23 Nov 2014 (Local Time) from UUOB Reporting Station
Haze Haze  
Wind Chill: 13°   Ceiling: Unl
Heat Index: 21°   Visibility: 2.5mi
Dew Point: 19°   Wind: 7mph
Humidity: 93%   Direction: 360°N
Pressure: 30.45"   Gusts: NA
Location:  51.28°N, 37.39°E
Report Text: UUOB 231900Z 36003MPS 4000 BR NSC M06/M07 Q1031 11090060 NOSIG
Loading
Personal Weather Stations






























Interactive Weather Map New forecast layout! Learn more

10-Day Weather Forecast

Advertisements
Track Severe Weather on mobile